Time;durP1;ratioP1;P1;durP2;ratioP2;P2;SDS_P1;SDS_P2;PMS_P1;PMS_P2;Temp;Humidity;BMP_temperature;BMP_pressure;BME280_temperature;BME280_humidity;BME280_pressure;Samples;Min_cycle;Max_cycle;Signal;HPM_P1;HPM_P2
2021/11/24 00:00:04;;;;;;;;;;;5.90;99.90;6.40;100061.00;;;;347170;28;83322;-88
2021/11/24 00:00:16;;;;;;;;;;;5.90;99.90;6.40;100062.00;;;;343955;28;95580;-87
2021/11/24 00:00:27;;;;;;;;;;;5.90;99.90;6.40;100054.00;;;;344415;28;83332;-87
2021/11/24 00:00:39;;;;;;;;;;;5.90;99.90;6.40;100065.00;;;;344167;28;91634;-87
2021/11/24 00:00:51;;;;;;;;;;;5.90;99.90;6.40;100055.00;;;;346026;28;83562;-87
2021/11/24 00:01:03;;;;;;;;;;;5.90;99.90;6.40;100054.00;;;;347983;27;96663;-86
2021/11/24 00:01:15;;;;;;;;;;;5.90;99.90;6.30;100057.00;;;;347452;28;83418;-87
2021/11/24 00:01:27;;;;;;;;;;;5.90;99.90;6.40;100056.00;;;;345165;28;94006;-87
2021/11/24 00:01:39;;;;;;;;;;;5.90;99.90;6.50;100055.00;;;;346252;28;83386;-88
2021/11/24 00:01:51;;;;;;;;;;;5.90;99.90;6.40;100059.00;;;;343938;28;93412;-87
2021/11/24 00:02:02;;;;;;;;;;;5.90;99.90;6.30;100057.00;;;;343001;28;83478;-87
2021/11/24 00:02:15;;;;;;;;;;;5.90;99.90;6.40;100062.00;;;;343931;28;93618;-87
2021/11/24 00:02:26;;;;;;;;;;;5.90;99.90;6.40;100058.00;;;;345891;28;83508;-87
2021/11/24 00:02:38;;;;;;;;;;;5.90;99.90;6.40;100066.00;;;;343901;28;96884;-87
2021/11/24 00:02:50;;;;;;;;;;;5.90;99.90;6.40;100066.00;;;;345731;28;82590;-87
2021/11/24 00:03:02;;;;;;;;;;;5.90;99.90;6.40;100061.00;;;;342439;28;97160;-87
2021/11/24 00:03:14;;;;;;;;;;;5.90;99.90;6.40;100060.00;;;;345979;28;82492;-87
2021/11/24 00:03:26;;;;;;;;;;;5.90;99.90;6.40;100061.00;;;;344645;28;95188;-87
2021/11/24 00:03:38;;;;;;;;;;;5.90;99.90;6.50;100058.00;;;;344379;28;82358;-87
2021/11/24 00:03:50;;;;;;;;;;;5.90;99.90;6.50;100060.00;;;;345285;28;93704;-87
2021/11/24 00:04:02;;;;;;;;;;;5.90;99.90;6.40;100063.00;;;;344786;28;82333;-87
2021/11/24 00:04:14;;;;;;;;;;;5.90;99.90;6.30;100059.00;;;;344066;28;94184;-88
2021/11/24 00:04:25;;;;;;;;;;;5.90;99.90;6.40;100057.00;;;;344489;28;82496;-87
2021/11/24 00:04:37;;;;;;;;;;;5.90;99.90;6.40;100056.00;;;;345278;28;96962;-87
2021/11/24 00:04:49;;;;;;;;;;;5.90;99.90;6.40;100061.00;;;;341875;28;83379;-87
2021/11/24 00:05:01;;;;;;;;;;;5.90;99.90;6.30;100059.00;;;;345081;28;96587;-87
2021/11/24 00:05:13;;;;;;;;;;;5.90;99.90;6.40;100070.00;;;;347307;28;83498;-87
2021/11/24 00:05:25;;;;;;;;;;;5.90;99.90;6.30;100060.00;;;;343787;28;93296;-87
2021/11/24 00:05:37;;;;;;;;;;;5.90;99.90;6.40;100059.00;;;;344421;28;82470;-87
2021/11/24 00:05:48;;;;;;;;;;;5.80;99.90;6.40;100061.00;;;;343700;28;95593;-87
2021/11/24 00:06:00;;;;;;;;;;;5.90;99.90;6.40;100057.00;;;;344393;28;82565;-88
2021/11/24 00:06:12;;;;;;;;;;;5.90;99.90;6.40;100055.00;;;;344977;28;92377;-87
2021/11/24 00:06:24;;;;;;;;;;;5.90;99.90;6.50;100049.00;;;;345469;28;82946;-87
2021/11/24 00:06:36;;;;;;;;;;;5.90;99.90;6.50;100054.00;;;;342699;28;93735;-88
2021/11/24 00:06:48;;;;;;;;;;;5.90;99.90;6.50;100049.00;;;;344674;28;83176;-87
2021/11/24 00:07:00;;;;;;;;;;;5.90;99.90;6.50;100058.00;;;;345498;28;93859;-87
2021/11/24 00:07:11;;;;;;;;;;;5.90;99.90;6.50;100056.00;;;;347566;28;82462;-87
2021/11/24 00:07:23;;;;;;;;;;;5.90;99.90;6.50;100064.00;;;;345293;28;94672;-87
2021/11/24 00:07:35;;;;;;;;;;;5.90;99.90;6.50;100061.00;;;;346092;28;83386;-87
2021/11/24 00:07:47;;;;;;;;;;;5.90;99.90;6.40;100061.00;;;;343768;28;96744;-87
2021/11/24 00:07:59;;;;;;;;;;;5.90;99.90;6.30;100056.00;;;;346170;28;83416;-87
2021/11/24 00:08:11;;;;;;;;;;;5.90;99.90;6.40;100058.00;;;;344011;28;93491;-87
2021/11/24 00:08:23;;;;;;;;;;;5.90;99.90;6.40;100063.00;;;;345782;28;83198;-87
2021/11/24 00:08:35;;;;;;;;;;;5.90;99.90;6.50;100051.00;;;;348099;27;94392;-87
2021/11/24 00:08:48;;;;;;;;;;;5.90;99.90;6.40;100061.00;;;;347276;28;82479;-87
2021/11/24 00:09:00;;;;;;;;;;;5.90;99.90;6.50;100063.00;;;;341002;28;94473;-87
2021/11/24 00:09:12;;;;;;;;;;;5.90;99.90;6.40;100062.00;;;;347091;28;83407;-87
2021/11/24 00:09:25;;;;;;;;;;;5.90;99.90;6.40;100059.00;;;;346442;27;95073;-87
2021/11/24 00:09:36;;;;;;;;;;;5.90;99.90;6.50;100052.00;;;;347516;28;82334;-87
2021/11/24 00:09:48;;;;;;;;;;;5.90;99.90;6.50;100062.00;;;;346692;28;92448;-87
2021/11/24 00:10:00;;;;;;;;;;;5.90;99.90;6.40;100059.00;;;;344806;28;83415;-87
2021/11/24 00:10:13;;;;;;;;;;;5.90;99.90;6.40;100058.00;;;;343727;28;95833;-87
2021/11/24 00:10:29;;;;;;;;;;;5.90;99.90;6.40;100056.00;;;;347355;28;83391;-87
2021/11/24 00:10:41;;;;;;;;;;;5.90;99.90;6.50;100053.00;;;;342386;28;96030;-87
2021/11/24 00:10:52;;;;;;;;;;;5.90;99.90;6.50;100059.00;;;;346127;28;83214;-87
2021/11/24 00:11:04;;;;;;;;;;;5.90;99.90;6.50;100049.00;;;;343819;28;96118;-87
2021/11/24 00:11:16;;;;;;;;;;;5.90;99.90;6.50;100055.00;;;;340502;28;83248;-87
2021/11/24 00:11:28;;;;;;;;;;;5.90;99.90;6.30;100054.00;;;;346187;28;96337;-87
2021/11/24 00:11:40;;;;;;;;;;;5.90;99.90;6.40;100051.00;;;;344373;28;83414;-87
2021/11/24 00:11:52;;;;;;;;;;;5.90;99.90;6.40;100057.00;;;;343793;28;93611;-87
2021/11/24 00:12:04;;;;;;;;;;;5.90;99.90;6.30;100057.00;;;;343324;28;83257;-87
2021/11/24 00:12:16;;;;;;;;;;;5.90;99.90;6.40;100059.00;;;;345254;28;92930;-88
2021/11/24 00:12:28;;;;;;;;;;;5.90;99.90;6.40;100055.00;;;;344279;28;83330;-87
2021/11/24 00:12:40;;;;;;;;;;;5.90;99.90;6.50;100058.00;;;;343768;28;95693;-87
2021/11/24 00:12:52;;;;;;;;;;;5.90;99.90;6.50;100054.00;;;;343268;28;82482;-87
2021/11/24 00:13:04;;;;;;;;;;;5.90;99.90;6.50;100055.00;;;;346477;28;96897;-88
2021/11/24 00:13:16;;;;;;;;;;;5.90;99.90;6.50;100059.00;;;;344503;28;83355;-87
2021/11/24 00:13:27;;;;;;;;;;;5.90;99.90;6.50;100051.00;;;;343925;28;93676;-87
2021/11/24 00:13:39;;;;;;;;;;;5.90;99.90;6.50;100056.00;;;;348803;27;83416;-87
2021/11/24 00:13:51;;;;;;;;;;;5.90;99.90;6.40;100060.00;;;;346822;28;93083;-87
2021/11/24 00:14:03;;;;;;;;;;;5.90;99.90;6.20;100054.00;;;;343365;28;83473;-87
2021/11/24 00:14:15;;;;;;;;;;;5.90;99.90;6.30;100055.00;;;;346602;28;95166;-87
2021/11/24 00:14:26;;;;;;;;;;;5.90;99.90;6.30;100053.00;;;;347394;28;82666;-87
2021/11/24 00:14:38;;;;;;;;;;;5.90;99.90;6.20;100056.00;;;;342638;28;94722;-87
2021/11/24 00:14:50;;;;;;;;;;;5.90;99.90;6.30;100055.00;;;;346110;28;83378;-87
2021/11/24 00:15:02;;;;;;;;;;;5.90;99.90;6.40;100052.00;;;;344808;28;94550;-87
2021/11/24 00:15:14;;;;;;;;;;;5.90;99.90;6.40;100048.00;;;;344448;28;83372;-87
2021/11/24 00:15:26;;;;;;;;;;;5.90;99.90;6.40;100044.00;;;;343395;28;92581;-87
2021/11/24 00:15:38;;;;;;;;;;;5.90;99.90;6.40;100050.00;;;;347312;28;83271;-88
2021/11/24 00:15:50;;;;;;;;;;;5.90;99.90;6.40;100048.00;;;;346204;28;96734;-87
2021/11/24 00:16:02;;;;;;;;;;;5.90;99.90;6.40;100050.00;;;;343088;28;83509;-87
2021/11/24 00:16:14;;;;;;;;;;;5.90;99.90;6.40;100047.00;;;;343700;28;97174;-86
2021/11/24 00:16:26;;;;;;;;;;;5.90;99.90;6.40;100052.00;;;;345799;28;82334;-87
2021/11/24 00:16:37;;;;;;;;;;;5.90;99.90;6.50;100058.00;;;;342429;28;96927;-87
2021/11/24 00:16:49;;;;;;;;;;;5.90;99.90;6.50;100051.00;;;;344784;28;83258;-87
2021/11/24 00:17:01;;;;;;;;;;;5.90;99.90;6.40;100048.00;;;;343770;28;95175;-88
2021/11/24 00:17:13;;;;;;;;;;;5.90;99.90;6.40;100048.00;;;;341932;28;83446;-87
2021/11/24 00:17:25;;;;;;;;;;;5.90;99.90;6.50;100051.00;;;;345107;28;97585;-87
2021/11/24 00:17:37;;;;;;;;;;;5.90;99.90;6.50;100049.00;;;;344508;28;83463;-87
2021/11/24 00:17:49;;;;;;;;;;;5.90;99.90;6.50;100054.00;;;;343509;28;96875;-87
2021/11/24 00:18:01;;;;;;;;;;;5.90;99.90;6.60;100056.00;;;;344921;28;83341;-87
2021/11/24 00:18:13;;;;;;;;;;;5.90;99.90;6.50;100052.00;;;;345111;28;94423;-87
2021/11/24 00:18:25;;;;;;;;;;;5.90;99.90;6.50;100048.00;;;;344009;28;83408;-87
2021/11/24 00:18:36;;;;;;;;;;;5.90;99.90;6.30;100043.00;;;;345107;28;95507;-86
2021/11/24 00:18:48;;;;;;;;;;;5.90;99.90;6.20;100052.00;;;;343158;28;82413;-87
2021/11/24 00:19:00;;;;;;;;;;;5.90;99.90;6.20;100055.00;;;;341023;28;93410;-87
2021/11/24 00:19:12;;;;;;;;;;;5.90;99.90;6.20;100044.00;;;;347163;28;83597;-87
2021/11/24 00:19:23;;;;;;;;;;;5.90;99.90;6.30;100045.00;;;;345275;28;94016;-88
2021/11/24 00:19:35;;;;;;;;;;;5.90;99.90;6.30;100050.00;;;;341860;28;83410;-87
2021/11/24 00:19:47;;;;;;;;;;;5.90;99.90;6.20;100055.00;;;;342609;28;94610;-87
2021/11/24 00:19:59;;;;;;;;;;;5.80;99.90;6.20;100055.00;;;;344547;28;83352;-87
2021/11/24 00:20:11;;;;;;;;;;;5.80;99.90;6.30;100049.00;;;;344889;28;97046;-87
2021/11/24 00:20:23;;;;;;;;;;;5.80;99.90;6.30;100044.00;;;;346163;28;83153;-87
2021/11/24 00:20:34;;;;;;;;;;;5.80;99.90;6.40;100048.00;;;;343803;28;94205;-87
2021/11/24 00:20:46;;;;;;;;;;;5.80;99.90;6.40;100046.00;;;;342001;28;83356;-87
2021/11/24 00:20:58;;;;;;;;;;;5.80;99.90;6.40;100041.00;;;;345483;28;93258;-87
2021/11/24 00:21:10;;;;;;;;;;;5.80;99.90;6.30;100045.00;;;;345365;28;82617;-87
2021/11/24 00:21:22;;;;;;;;;;;5.80;99.90;6.40;100050.00;;;;342917;28;94488;-86
2021/11/24 00:21:34;;;;;;;;;;;5.80;99.90;6.40;100050.00;;;;343139;28;83535;-87
2021/11/24 00:21:46;;;;;;;;;;;5.90;99.90;6.50;100042.00;;;;345086;28;96721;-87
2021/11/24 00:21:58;;;;;;;;;;;5.80;99.90;6.30;100051.00;;;;343272;28;83404;-87
2021/11/24 00:22:09;;;;;;;;;;;5.80;99.90;6.20;100053.00;;;;345329;28;92834;-87
2021/11/24 00:22:22;;;;;;;;;;;5.80;99.90;6.20;100049.00;;;;341955;28;83517;-87
2021/11/24 00:22:33;;;;;;;;;;;5.80;99.90;6.30;100046.00;;;;343943;28;94455;-87
2021/11/24 00:22:45;;;;;;;;;;;5.80;99.90;6.40;100039.00;;;;343344;28;83357;-87
2021/11/24 00:22:57;;;;;;;;;;;5.80;99.90;6.40;100048.00;;;;340658;28;93699;-87
2021/11/24 00:23:09;;;;;;;;;;;5.80;99.90;6.40;100055.00;;;;346042;28;83421;-87
2021/11/24 00:23:21;;;;;;;;;;;5.80;99.90;6.40;100044.00;;;;343779;28;94362;-87
2021/11/24 00:23:33;;;;;;;;;;;5.80;99.90;6.40;100047.00;;;;344288;28;83470;-87
2021/11/24 00:23:46;;;;;;;;;;;5.80;99.90;6.40;100050.00;;;;343901;28;93384;-87
2021/11/24 00:23:57;;;;;;;;;;;5.80;99.90;6.30;100042.00;;;;344783;28;83492;-87
2021/11/24 00:24:09;;;;;;;;;;;5.80;99.90;6.40;100048.00;;;;344139;28;96618;-87
2021/11/24 00:24:21;;;;;;;;;;;5.80;99.90;6.40;100052.00;;;;346118;28;83550;-87
2021/11/24 00:24:33;;;;;;;;;;;5.80;99.90;6.40;100047.00;;;;343754;28;96484;-87
2021/11/24 00:24:45;;;;;;;;;;;5.90;99.90;6.40;100048.00;;;;346115;28;83348;-87
2021/11/24 00:24:57;;;;;;;;;;;5.80;99.90;6.50;100049.00;;;;346067;28;94014;-87
2021/11/24 00:25:09;;;;;;;;;;;5.90;99.90;6.50;100050.00;;;;347607;28;82262;-87
2021/11/24 00:25:21;;;;;;;;;;;5.90;99.90;6.50;100049.00;;;;345076;28;97582;-87
2021/11/24 00:25:33;;;;;;;;;;;5.90;99.90;6.50;100053.00;;;;347188;28;82528;-87
2021/11/24 00:25:45;;;;;;;;;;;5.90;99.90;6.50;100047.00;;;;345227;28;94144;-88
2021/11/24 00:25:56;;;;;;;;;;;5.90;99.90;6.50;100040.00;;;;344619;28;82513;-87
2021/11/24 00:26:08;;;;;;;;;;;5.90;99.90;6.50;100047.00;;;;343835;28;95438;-87
2021/11/24 00:26:20;;;;;;;;;;;5.90;99.90;6.60;100046.00;;;;346083;28;83312;-87
2021/11/24 00:26:32;;;;;;;;;;;5.90;99.90;6.50;100043.00;;;;345386;28;92843;-87
2021/11/24 00:26:44;;;;;;;;;;;5.90;99.90;6.50;100046.00;;;;346147;28;83307;-87
2021/11/24 00:26:56;;;;;;;;;;;5.90;99.90;6.50;100045.00;;;;344277;28;94749;-87
2021/11/24 00:27:07;;;;;;;;;;;5.90;99.90;6.50;100048.00;;;;344988;28;83347;-87
2021/11/24 00:27:19;;;;;;;;;;;5.90;99.90;6.40;100042.00;;;;345253;28;95503;-87
2021/11/24 00:27:31;;;;;;;;;;;5.90;99.90;6.50;100050.00;;;;347504;28;83334;-87
2021/11/24 00:27:43;;;;;;;;;;;5.90;99.90;6.50;100047.00;;;;346520;28;94929;-87
2021/11/24 00:27:54;;;;;;;;;;;5.90;99.90;6.50;100045.00;;;;346213;28;83538;-87
2021/11/24 00:28:06;;;;;;;;;;;5.90;99.90;6.40;100045.00;;;;345260;28;95599;-87
2021/11/24 00:28:18;;;;;;;;;;;5.90;99.90;6.30;100043.00;;;;344790;28;82466;-87
2021/11/24 00:28:30;;;;;;;;;;;5.90;99.90;6.40;100045.00;;;;345374;28;92896;-87
2021/11/24 00:28:42;;;;;;;;;;;5.90;99.90;6.50;100040.00;;;;347571;28;82386;-87
2021/11/24 00:28:54;;;;;;;;;;;5.90;99.90;6.50;100045.00;;;;345059;28;95336;-87
2021/11/24 00:29:05;;;;;;;;;;;5.90;99.90;6.50;100042.00;;;;345905;28;83474;-87
2021/11/24 00:29:17;;;;;;;;;;;5.90;99.90;6.60;100043.00;;;;345247;28;95497;-88
2021/11/24 00:29:29;;;;;;;;;;;5.90;99.90;6.60;100053.00;;;;347360;28;83156;-87
2021/11/24 00:29:41;;;;;;;;;;;5.90;99.90;6.60;100037.00;;;;345130;28;97040;-87
2021/11/24 00:29:55;;;;;;;;;;;6.00;99.90;6.60;100047.00;;;;343267;28;83251;-88
2021/11/24 00:30:07;;;;;;;;;;;6.00;99.90;6.60;100054.00;;;;344607;28;96148;-87
2021/11/24 00:30:18;;;;;;;;;;;6.00;99.90;6.60;100046.00;;;;350384;27;82343;-88
2021/11/24 00:30:30;;;;;;;;;;;6.00;99.90;6.60;100044.00;;;;345172;28;95722;-88
2021/11/24 00:30:42;;;;;;;;;;;6.00;99.90;6.50;100043.00;;;;347403;28;82908;-87
2021/11/24 00:30:54;;;;;;;;;;;6.00;99.90;6.50;100047.00;;;;343557;28;97516;-87
2021/11/24 00:31:06;;;;;;;;;;;6.00;99.90;6.50;100051.00;;;;345951;28;83412;-87
2021/11/24 00:31:18;;;;;;;;;;;6.00;99.90;6.40;100051.00;;;;345045;28;96778;-87
2021/11/24 00:31:30;;;;;;;;;;;6.00;99.90;6.50;100053.00;;;;345764;28;83396;-87
2021/11/24 00:31:42;;;;;;;;;;;5.90;99.90;6.50;100053.00;;;;346545;28;95102;-88
2021/11/24 00:31:53;;;;;;;;;;;6.00;99.90;6.60;100047.00;;;;344614;28;83414;-87
2021/11/24 00:32:05;;;;;;;;;;;5.90;99.90;6.50;100053.00;;;;343646;28;95493;-87
2021/11/24 00:32:17;;;;;;;;;;;6.00;99.90;6.30;100048.00;;;;344598;28;82590;-87
2021/11/24 00:32:29;;;;;;;;;;;6.00;99.90;6.30;100040.00;;;;343803;28;96630;-87
2021/11/24 00:32:41;;;;;;;;;;;5.90;99.90;6.20;100047.00;;;;347027;28;82469;-87
2021/11/24 00:32:55;;;;;;;;;;;5.90;99.90;6.40;100046.00;;;;343477;28;92909;-87
2021/11/24 00:33:07;;;;;;;;;;;5.90;99.90;6.40;100043.00;;;;348073;27;82546;-87
2021/11/24 00:33:18;;;;;;;;;;;5.90;99.90;6.50;100045.00;;;;345322;28;93685;-87
2021/11/24 00:33:30;;;;;;;;;;;5.90;99.90;6.50;100048.00;;;;346002;28;83441;-87
2021/11/24 00:33:42;;;;;;;;;;;5.90;99.90;6.50;100046.00;;;;346683;28;94266;-87
2021/11/24 00:33:54;;;;;;;;;;;5.90;99.90;6.50;100050.00;;;;347212;28;83264;-87
2021/11/24 00:34:06;;;;;;;;;;;5.90;99.90;6.60;100044.00;;;;342487;28;97346;-87
2021/11/24 00:34:18;;;;;;;;;;;6.00;99.90;6.60;100050.00;;;;346164;28;83060;-88
2021/11/24 00:34:30;;;;;;;;;;;6.00;99.90;6.60;100048.00;;;;345472;28;92976;-87
2021/11/24 00:34:41;;;;;;;;;;;6.00;99.90;6.60;100043.00;;;;344673;28;83102;-87
2021/11/24 00:34:53;;;;;;;;;;;6.00;99.90;6.50;100045.00;;;;344466;28;92241;-87
2021/11/24 00:35:05;;;;;;;;;;;6.00;99.90;6.50;100043.00;;;;344574;28;82577;-87
2021/11/24 00:35:17;;;;;;;;;;;6.00;99.90;6.50;100036.00;;;;343736;28;97687;-87
2021/11/24 00:35:29;;;;;;;;;;;6.00;99.90;6.60;100040.00;;;;343290;28;83554;-87
2021/11/24 00:35:41;;;;;;;;;;;6.00;99.90;6.50;100046.00;;;;342569;28;93795;-87
2021/11/24 00:35:53;;;;;;;;;;;6.00;99.90;6.40;100040.00;;;;345744;28;82562;-87
2021/11/24 00:36:05;;;;;;;;;;;5.90;99.90;6.40;100043.00;;;;343547;28;98151;-87
2021/11/24 00:36:17;;;;;;;;;;;6.00;99.90;6.30;100037.00;;;;346218;28;82289;-87
2021/11/24 00:36:29;;;;;;;;;;;5.90;99.90;6.30;100044.00;;;;342280;28;93157;-87
2021/11/24 00:36:41;;;;;;;;;;;5.90;99.90;6.40;100033.00;;;;346094;28;83315;-87
2021/11/24 00:36:53;;;;;;;;;;;5.90;99.90;6.40;100031.00;;;;344685;28;93431;-87
2021/11/24 00:37:04;;;;;;;;;;;5.90;99.90;6.50;100040.00;;;;344818;28;82405;-87
2021/11/24 00:37:16;;;;;;;;;;;5.90;99.90;6.50;100041.00;;;;346469;28;98111;-87
2021/11/24 00:37:29;;;;;;;;;;;5.90;99.90;6.50;100041.00;;;;345792;28;83470;-87
2021/11/24 00:37:46;;;;;;;;;;;5.90;99.90;6.60;100044.00;;;;343843;28;94800;-87
2021/11/24 00:37:58;;;;;;;;;;;5.90;99.90;6.50;100046.00;;;;346035;28;83171;-87
2021/11/24 00:38:09;;;;;;;;;;;5.90;99.90;6.50;100044.00;;;;345239;28;93977;-87
2021/11/24 00:38:21;;;;;;;;;;;5.90;99.90;6.50;100046.00;;;;343351;28;83374;-87
2021/11/24 00:38:33;;;;;;;;;;;5.90;99.90;6.50;100040.00;;;;342517;28;96476;-87
2021/11/24 00:38:45;;;;;;;;;;;5.90;99.90;6.40;100037.00;;;;344263;28;83288;-87
2021/11/24 00:38:56;;;;;;;;;;;5.90;99.90;6.40;100043.00;;;;344333;28;95681;-87
2021/11/24 00:39:08;;;;;;;;;;;5.90;99.90;6.40;100040.00;;;;343236;28;82390;-87
2021/11/24 00:39:20;;;;;;;;;;;5.90;99.90;6.40;100027.00;;;;343875;28;97401;-87
2021/11/24 00:39:32;;;;;;;;;;;5.90;99.90;6.50;100041.00;;;;347408;28;83509;-87
2021/11/24 00:39:43;;;;;;;;;;;5.90;99.90;6.50;100046.00;;;;345468;28;93435;-87
2021/11/24 00:39:56;;;;;;;;;;;5.90;99.90;6.50;100045.00;;;;346831;28;83137;-87
2021/11/24 00:40:08;;;;;;;;;;;5.90;99.90;6.50;100033.00;;;;345286;28;93390;-87
2021/11/24 00:40:20;;;;;;;;;;;5.90;99.90;6.50;100042.00;;;;344742;28;83161;-87
2021/11/24 00:40:32;;;;;;;;;;;5.90;99.90;6.50;100044.00;;;;345377;28;92818;-88
2021/11/24 00:40:43;;;;;;;;;;;5.90;99.90;6.40;100043.00;;;;344733;28;83234;-86
2021/11/24 00:40:55;;;;;;;;;;;5.90;99.90;6.50;100042.00;;;;341280;28;93205;-87
2021/11/24 00:41:07;;;;;;;;;;;5.90;99.90;6.50;100036.00;;;;345602;28;83469;-87
2021/11/24 00:41:19;;;;;;;;;;;5.90;99.90;6.50;100033.00;;;;343867;28;95230;-87
2021/11/24 00:41:31;;;;;;;;;;;5.90;99.90;6.50;100040.00;;;;344694;28;83529;-87
2021/11/24 00:41:42;;;;;;;;;;;5.90;99.90;6.60;100030.00;;;;341279;28;96422;-87
2021/11/24 00:41:54;;;;;;;;;;;5.90;99.90;6.50;100040.00;;;;343627;28;83615;-87
2021/11/24 00:42:06;;;;;;;;;;;5.90;99.90;6.40;100036.00;;;;344863;28;93923;-88
2021/11/24 00:42:18;;;;;;;;;;;5.90;99.90;6.50;100034.00;;;;344470;28;83623;-87
2021/11/24 00:42:30;;;;;;;;;;;5.90;99.90;6.40;100031.00;;;;345331;28;93440;-87
2021/11/24 00:42:41;;;;;;;;;;;5.90;99.90;6.50;100035.00;;;;344452;28;83449;-87
2021/11/24 00:42:53;;;;;;;;;;;5.90;99.90;6.40;100029.00;;;;343886;28;94341;-87
2021/11/24 00:43:05;;;;;;;;;;;5.90;99.90;6.40;100031.00;;;;343079;28;83513;-87
2021/11/24 00:43:17;;;;;;;;;;;5.90;99.90;6.30;100039.00;;;;343925;28;94917;-87
2021/11/24 00:43:28;;;;;;;;;;;5.90;99.90;6.30;100035.00;;;;343066;28;83398;-87
2021/11/24 00:43:40;;;;;;;;;;;5.90;99.90;6.40;100042.00;;;;343695;28;96387;-87
2021/11/24 00:43:52;;;;;;;;;;;5.90;99.90;6.40;100036.00;;;;345965;28;83431;-87
2021/11/24 00:44:04;;;;;;;;;;;5.90;99.90;6.40;100037.00;;;;343831;28;96643;-87
2021/11/24 00:44:16;;;;;;;;;;;5.90;99.90;6.40;100034.00;;;;346219;28;82339;-87
2021/11/24 00:44:28;;;;;;;;;;;5.90;99.90;6.40;100031.00;;;;346530;28;96477;-87
2021/11/24 00:44:40;;;;;;;;;;;5.90;99.90;6.30;100031.00;;;;345878;28;83586;-87
2021/11/24 00:44:52;;;;;;;;;;;5.90;99.90;6.30;100037.00;;;;343784;28;96873;-87
2021/11/24 00:45:04;;;;;;;;;;;5.90;99.90;6.40;100034.00;;;;345661;28;82497;-87
2021/11/24 00:45:15;;;;;;;;;;;5.90;99.90;6.50;100034.00;;;;345236;28;98369;-87
2021/11/24 00:45:27;;;;;;;;;;;5.90;99.90;6.50;100028.00;;;;343483;28;83416;-87
2021/11/24 00:45:39;;;;;;;;;;;5.90;99.90;6.50;100038.00;;;;342575;28;94695;-87
2021/11/24 00:45:51;;;;;;;;;;;5.90;99.90;6.50;100029.00;;;;344780;28;83326;-87
2021/11/24 00:46:03;;;;;;;;;;;5.90;99.90;6.50;100033.00;;;;345363;28;94475;-88
2021/11/24 00:46:15;;;;;;;;;;;5.90;99.90;6.40;100027.00;;;;346116;28;83612;-87
2021/11/24 00:46:26;;;;;;;;;;;5.90;99.90;6.30;100033.00;;;;345272;28;96652;-88
2021/11/24 00:46:39;;;;;;;;;;;5.90;99.90;6.40;100024.00;;;;346143;28;83441;-87
2021/11/24 00:46:51;;;;;;;;;;;5.90;99.90;6.50;100030.00;;;;343460;28;96935;-87
2021/11/24 00:47:03;;;;;;;;;;;5.90;99.90;6.30;100033.00;;;;343400;28;82333;-87
2021/11/24 00:47:14;;;;;;;;;;;5.90;99.90;6.20;100030.00;;;;345227;28;95815;-87
2021/11/24 00:47:26;;;;;;;;;;;5.90;99.90;6.40;100031.00;;;;347304;28;83272;-87
2021/11/24 00:47:38;;;;;;;;;;;5.90;99.90;6.30;100031.00;;;;345444;28;93861;-87
2021/11/24 00:47:50;;;;;;;;;;;5.90;99.90;6.40;100027.00;;;;344737;28;82393;-87
2021/11/24 00:48:03;;;;;;;;;;;5.90;99.90;6.40;100033.00;;;;345268;28;91630;-88
2021/11/24 00:48:15;;;;;;;;;;;5.90;99.90;6.50;100035.00;;;;343390;28;83481;-87
2021/11/24 00:48:27;;;;;;;;;;;5.90;99.90;6.50;100036.00;;;;343620;28;93734;-87
2021/11/24 00:48:41;;;;;;;;;;;5.90;99.90;6.40;100029.00;;;;344651;28;83402;-87
2021/11/24 00:48:52;;;;;;;;;;;5.90;99.90;6.40;100028.00;;;;342550;28;94314;-87
2021/11/24 00:49:04;;;;;;;;;;;5.90;99.90;6.40;100023.00;;;;345889;28;82567;-87
2021/11/24 00:49:16;;;;;;;;;;;5.90;99.90;6.40;100039.00;;;;343212;28;94243;-87
2021/11/24 00:49:28;;;;;;;;;;;5.90;99.90;6.50;100034.00;;;;344728;28;83246;-87
2021/11/24 00:49:40;;;;;;;;;;;5.90;99.90;6.50;100034.00;;;;343974;28;94196;-87
2021/11/24 00:49:52;;;;;;;;;;;5.90;99.90;6.50;100030.00;;;;344652;28;83369;-87
2021/11/24 00:50:05;;;;;;;;;;;5.90;99.90;6.50;100037.00;;;;342600;28;92573;-87
2021/11/24 00:50:17;;;;;;;;;;;5.90;99.90;6.40;100026.00;;;;343073;28;83339;-87
2021/11/24 00:50:28;;;;;;;;;;;5.90;99.90;6.40;100029.00;;;;346692;28;94329;-87
2021/11/24 00:50:40;;;;;;;;;;;5.90;99.90;6.40;100032.00;;;;345892;28;82611;-87
2021/11/24 00:50:52;;;;;;;;;;;5.90;99.90;6.50;100031.00;;;;344966;28;96637;-87
2021/11/24 00:51:04;;;;;;;;;;;5.90;99.90;6.50;100026.00;;;;345580;28;83577;-87
2021/11/24 00:51:16;;;;;;;;;;;5.90;99.90;6.50;100032.00;;;;345265;28;93443;-87
2021/11/24 00:51:27;;;;;;;;;;;5.90;99.90;6.50;100030.00;;;;348493;27;82412;-87
2021/11/24 00:51:39;;;;;;;;;;;5.90;99.90;6.50;100038.00;;;;343801;28;95526;-87
2021/11/24 00:51:51;;;;;;;;;;;5.90;99.90;6.50;100031.00;;;;347495;28;82215;-87
2021/11/24 00:52:03;;;;;;;;;;;6.00;99.90;6.50;100031.00;;;;345241;28;94681;-87
2021/11/24 00:52:15;;;;;;;;;;;6.00;99.90;6.50;100027.00;;;;344438;28;84806;-87
2021/11/24 00:52:29;;;;;;;;;;;5.90;99.90;6.50;100027.00;;;;344905;28;95558;-87
2021/11/24 00:52:41;;;;;;;;;;;5.90;99.90;6.40;100029.00;;;;344666;28;83415;-87
2021/11/24 00:52:53;;;;;;;;;;;5.90;99.90;6.50;100031.00;;;;343917;28;92816;-87
2021/11/24 00:53:05;;;;;;;;;;;6.00;99.90;6.40;100036.00;;;;347354;28;82498;-87
2021/11/24 00:53:17;;;;;;;;;;;5.90;99.90;6.30;100025.00;;;;345224;28;95413;-88
2021/11/24 00:53:28;;;;;;;;;;;5.90;99.90;6.40;100028.00;;;;343194;28;83540;-87
2021/11/24 00:53:40;;;;;;;;;;;5.90;99.90;6.50;100030.00;;;;345318;28;93151;-87
2021/11/24 00:53:52;;;;;;;;;;;5.90;99.90;6.40;100031.00;;;;345708;28;83451;-87
2021/11/24 00:54:04;;;;;;;;;;;5.90;99.90;6.40;100038.00;;;;344957;28;96533;-87
2021/11/24 00:54:16;;;;;;;;;;;5.90;99.90;6.40;100025.00;;;;344805;28;82367;-87
2021/11/24 00:54:28;;;;;;;;;;;5.90;99.90;6.40;100035.00;;;;342042;28;94675;-88
2021/11/24 00:54:40;;;;;;;;;;;5.90;99.90;6.50;100031.00;;;;345860;28;82463;-88
2021/11/24 00:54:52;;;;;;;;;;;5.90;99.90;6.40;100026.00;;;;345071;28;94548;-87
2021/11/24 00:55:04;;;;;;;;;;;5.90;99.90;6.40;100029.00;;;;346142;28;83221;-87
2021/11/24 00:55:16;;;;;;;;;;;5.90;99.90;6.30;100031.00;;;;343723;28;97117;-88
2021/11/24 00:55:28;;;;;;;;;;;5.90;99.90;6.40;100035.00;;;;345990;28;82402;-87
2021/11/24 00:55:39;;;;;;;;;;;5.90;99.90;6.50;100029.00;;;;347862;27;95453;-87
2021/11/24 00:55:51;;;;;;;;;;;5.90;99.90;6.40;100029.00;;;;343114;28;83519;-88
2021/11/24 00:56:03;;;;;;;;;;;5.90;99.90;6.40;100031.00;;;;343837;28;93769;-87
2021/11/24 00:56:15;;;;;;;;;;;5.90;99.90;6.40;100027.00;;;;347578;28;83230;-88
2021/11/24 00:56:27;;;;;;;;;;;5.90;99.90;6.50;100027.00;;;;346694;28;94642;-87
2021/11/24 00:56:39;;;;;;;;;;;5.90;99.90;6.40;100026.00;;;;346032;28;83353;-88
2021/11/24 00:56:51;;;;;;;;;;;5.90;99.90;6.40;100024.00;;;;343831;28;92819;-87
2021/11/24 00:57:03;;;;;;;;;;;5.90;99.90;6.40;100027.00;;;;348029;27;83349;-87
2021/11/24 00:57:16;;;;;;;;;;;5.90;99.90;6.50;100029.00;;;;343799;28;95022;-87
2021/11/24 00:57:28;;;;;;;;;;;5.90;99.90;6.40;100021.00;;;;344604;28;83379;-87
2021/11/24 00:57:39;;;;;;;;;;;5.90;99.90;6.30;100021.00;;;;342603;28;94754;-88
2021/11/24 00:57:51;;;;;;;;;;;5.90;99.90;6.40;100025.00;;;;343380;28;83341;-87
2021/11/24 00:58:03;;;;;;;;;;;5.90;99.90;6.40;100022.00;;;;345095;28;96559;-87
2021/11/24 00:58:17;;;;;;;;;;;5.80;99.90;6.40;100022.00;;;;345972;28;83315;-87
2021/11/24 00:58:29;;;;;;;;;;;5.80;99.90;6.30;100023.00;;;;342399;28;96583;-87
2021/11/24 00:58:40;;;;;;;;;;;5.80;99.90;6.40;100021.00;;;;344712;28;83401;-87
2021/11/24 00:58:52;;;;;;;;;;;5.80;99.90;6.40;100025.00;;;;347750;27;96946;-87
2021/11/24 00:59:04;;;;;;;;;;;5.90;99.90;6.40;100023.00;;;;345954;28;83283;-87
2021/11/24 00:59:16;;;;;;;;;;;5.90;99.90;6.40;100025.00;;;;346638;28;95180;-87
2021/11/24 00:59:28;;;;;;;;;;;5.80;99.90;6.50;100038.00;;;;347451;28;83355;-87
2021/11/24 00:59:40;;;;;;;;;;;5.80;99.90;6.40;100019.00;;;;343690;28;96216;-87
2021/11/24 00:59:52;;;;;;;;;;;5.90;99.90;6.50;100030.00;;;;346774;28;83517;-87